createdAt,value
2022-09-02T00:00:36.920Z,18.53000069
2022-09-02T00:01:36.775Z,18.48999977
2022-09-02T00:02:31.315Z,18.48999977
2022-09-02T00:03:37.966Z,18.5
2022-09-02T00:04:29.934Z,18.47999954
2022-09-02T00:05:31.148Z,18.5
2022-09-02T00:06:26.420Z,18.53000069
2022-09-02T00:07:31.105Z,18.53000069
2022-09-02T00:09:22.496Z,18.53000069
2022-09-02T00:10:23.987Z,18.5
2022-09-02T00:11:23.050Z,18.46999931
2022-09-02T00:12:23.533Z,18.45000076
2022-09-02T00:13:18.875Z,18.46999931
2022-09-02T00:14:20.670Z,18.45000076
2022-09-02T00:15:12.599Z,18.44000053
2022-09-02T00:16:09.534Z,18.43000031
2022-09-02T00:17:10.148Z,18.39999962
2022-09-02T00:19:08.054Z,18.37999916
2022-09-02T00:19:59.824Z,18.36000061
2022-09-02T00:20:59.271Z,18.36000061
2022-09-02T00:21:55.115Z,18.32999992
2022-09-02T00:22:54.484Z,18.31999969
2022-09-02T00:23:49.320Z,18.31999969
2022-09-02T00:24:51.921Z,18.29999924
2022-09-02T00:25:51.922Z,18.29000092
2022-09-02T00:26:51.593Z,18.28000069
2022-09-02T00:26:57.083Z,18.28000069
2022-09-02T00:27:55.162Z,18.29000092
2022-09-02T00:28:48.907Z,18.31999969
2022-09-02T00:29:48.256Z,18.30999947
2022-09-02T00:31:33.717Z,18.35000038
2022-09-02T00:32:17.820Z,18.38999939
2022-09-02T00:33:18.124Z,18.44000053
2022-09-02T00:34:25.937Z,18.38999939
2022-09-02T00:35:24.273Z,18.36000061
2022-09-02T00:36:27.480Z,18.32999992
2022-09-02T00:37:26.512Z,18.29000092
2022-09-02T00:38:28.633Z,18.29000092
2022-09-02T00:39:26.823Z,18.25
2022-09-02T00:40:25.465Z,18.23999977
2022-09-02T00:41:25.737Z,18.20999908
2022-09-02T00:42:26.669Z,18.20000076
2022-09-02T00:43:28.716Z,18.20000076
2022-09-02T00:44:27.313Z,18.17000008
2022-09-02T00:45:28.861Z,18.13999939
2022-09-02T00:46:33.262Z,18.12000084
2022-09-02T00:47:36.274Z,18.10000038
2022-09-02T00:48:39.165Z,18.10000038
2022-09-02T00:49:43.501Z,18.04999924
2022-09-02T00:50:46.421Z,18.01000023
2022-09-02T00:51:44.561Z,18
2022-09-02T00:52:44.526Z,18
2022-09-02T00:53:46.860Z,18.01000023
2022-09-02T00:54:44.580Z,17.98999977
2022-09-02T00:55:46.688Z,17.98999977
2022-09-02T00:56:49.775Z,17.96999931
2022-09-02T00:57:51.792Z,17.96999931
2022-09-02T00:59:51.733Z,17.95999908
2022-09-02T01:00:52.241Z,17.95999908
2022-09-02T01:01:54.129Z,17.93000031
2022-09-02T01:02:51.933Z,17.93000031
2022-09-02T01:03:56.243Z,17.94000053
2022-09-02T01:04:58.193Z,17.89999962
2022-09-02T01:05:56.721Z,17.87000084
2022-09-02T01:07:02.018Z,17.89999962
2022-09-02T01:09:06.769Z,18.15999985
2022-09-02T01:10:06.804Z,18.17000008
2022-09-02T01:11:06.368Z,18.12999916
2022-09-02T01:12:08.547Z,18.12000084
2022-09-02T01:14:06.905Z,18.11000061
2022-09-02T01:15:07.119Z,18.06999969
2022-09-02T01:16:08.053Z,18.03000069
2022-09-02T01:17:04.818Z,18.02000046
2022-09-02T01:19:07.335Z,18
2022-09-02T01:20:14.648Z,17.97999954
2022-09-02T01:21:11.983Z,17.96999931
2022-09-02T01:22:08.610Z,17.95000076
2022-09-02T01:24:10.092Z,17.95999908
2022-09-02T01:25:54.250Z,18.01000023
2022-09-02T01:26:33.928Z,18.05999947
2022-09-02T01:27:32.015Z,18.10000038
2022-09-02T01:28:30.461Z,18.11000061
2022-09-02T01:29:26.033Z,18.07999992
2022-09-02T01:30:25.682Z,18.03000069
2022-09-02T01:31:20.300Z,18
2022-09-02T01:32:19.947Z,17.96999931
2022-09-02T01:33:15.313Z,17.98999977
2022-09-02T01:34:14.353Z,17.97999954
2022-09-02T01:35:12.468Z,17.95000076
2022-09-02T01:36:12.614Z,17.94000053
2022-09-02T01:37:11.805Z,17.92000008
2022-09-02T01:38:13.823Z,17.95000076
2022-09-02T01:39:09.108Z,17.97999954
2022-09-02T01:40:11.948Z,17.98999977
2022-09-02T01:41:04.778Z,17.97999954
2022-09-02T01:42:07.860Z,17.96999931
2022-09-02T01:43:00.628Z,17.95999908
2022-09-02T01:44:57.969Z,17.95999908
2022-09-02T01:46:00.114Z,17.93000031
2022-09-02T01:47:00.312Z,17.90999985
2022-09-02T01:47:58.629Z,17.89999962
2022-09-02T01:49:01.466Z,17.90999985
2022-09-02T01:49:56.750Z,17.87999916
2022-09-02T01:50:56.539Z,17.87999916
2022-09-02T01:51:51.728Z,17.87000084
2022-09-02T01:52:50.614Z,17.86000061
2022-09-02T01:53:48.754Z,17.86000061
2022-09-02T01:54:51.705Z,17.82999992
2022-09-02T01:55:47.372Z,17.82999992
2022-09-02T01:56:48.843Z,17.81999969
2022-09-02T01:57:44.244Z,17.81999969
2022-09-02T01:58:46.609Z,17.81999969
2022-09-02T01:59:44.049Z,17.79999924
2022-09-02T02:00:45.535Z,17.78000069
2022-09-02T02:01:49.652Z,17.77000046
2022-09-02T02:02:45.360Z,17.76000023
2022-09-02T02:04:52.206Z,17.75
2022-09-02T02:05:46.645Z,17.72999954
2022-09-02T02:06:53.399Z,17.75
2022-09-02T02:08:39.833Z,17.85000038
2022-09-02T02:09:23.322Z,17.87999916
2022-09-02T02:10:22.007Z,17.88999939
2022-09-02T02:11:23.973Z,17.87000084
2022-09-02T02:12:26.865Z,17.82999992
2022-09-02T02:13:28.661Z,17.81999969
2022-09-02T02:14:26.827Z,17.77000046
2022-09-02T02:16:29.214Z,17.70999908
2022-09-02T02:17:27.758Z,17.68000031
2022-09-02T02:18:30.077Z,17.69000053
2022-09-02T02:19:31.444Z,17.65999985
2022-09-02T02:20:27.371Z,17.64999962
2022-09-02T02:21:29.087Z,17.62999916
2022-09-02T02:22:27.802Z,17.60000038
2022-09-02T02:24:33.179Z,17.70999908
2022-09-02T02:25:29.653Z,17.73999977
2022-09-02T02:26:39.394Z,17.70999908
2022-09-02T02:27:40.414Z,17.68000031
2022-09-02T02:28:38.370Z,17.68000031
2022-09-02T02:29:39.898Z,17.64999962
2022-09-02T02:30:36.271Z,17.61000061
2022-09-02T02:31:37.673Z,17.56999969
2022-09-02T02:32:34.551Z,17.54000092
2022-09-02T02:33:37.540Z,17.54000092
2022-09-02T02:34:36.595Z,17.51000023
2022-09-02T02:35:39.546Z,17.46999931
2022-09-02T02:36:37.621Z,17.45000076
2022-09-02T02:37:42.435Z,17.43000031
2022-09-02T02:38:37.823Z,17.44000053
2022-09-02T02:39:45.104Z,17.42000008
2022-09-02T02:40:44.552Z,17.40999985
2022-09-02T02:41:48.147Z,17.39999962
2022-09-02T02:42:46.682Z,17.38999939
2022-09-02T02:44:45.326Z,17.37999916
2022-09-02T02:45:46.799Z,17.36000061
2022-09-02T02:46:48.321Z,17.34000015
2022-09-02T02:47:46.876Z,17.32999992
2022-09-02T02:49:48.494Z,17.30999947
2022-09-02T02:50:48.945Z,17.28000069
2022-09-02T02:51:49.664Z,17.26000023
2022-09-02T02:53:33.435Z,17.35000038
2022-09-02T02:54:13.489Z,17.39999962
2022-09-02T02:55:12.751Z,17.43000031
2022-09-02T02:56:15.460Z,17.42000008
2022-09-02T02:57:16.720Z,17.37999916
2022-09-02T02:58:16.590Z,17.38999939
2022-09-02T02:59:15.179Z,17.37000084
2022-09-02T03:00:13.737Z,17.35000038
2022-09-02T03:01:15.346Z,17.32999992
2022-09-02T03:02:13.942Z,17.30999947
2022-09-02T03:03:13.473Z,17.30999947
2022-09-02T03:04:10.488Z,17.29999924
2022-09-02T03:05:15.805Z,17.27000046
2022-09-02T03:06:10.552Z,17.25
2022-09-02T03:07:14.063Z,17.23999977
2022-09-02T03:08:13.561Z,17.25
2022-09-02T03:09:17.366Z,17.22999954
2022-09-02T03:10:17.396Z,17.20000076
2022-09-02T03:11:19.589Z,17.18000031
2022-09-02T03:12:14.030Z,17.17000008
2022-09-02T03:14:08.727Z,17.17000008
2022-09-02T03:15:12.842Z,17.13999939
2022-09-02T03:16:05.887Z,17.12999916
2022-09-02T03:17:04.666Z,17.12000084
2022-09-02T03:18:06.176Z,17.12000084
2022-09-02T03:19:59.413Z,17.10000038
2022-09-02T03:21:12.276Z,17.10000038
2022-09-02T03:22:11.340Z,17.05999947
2022-09-02T03:23:18.678Z,17.12000084
2022-09-02T03:24:11.325Z,17.22999954
2022-09-02T03:25:10.543Z,17.27000046
2022-09-02T03:26:08.044Z,17.27000046
2022-09-02T03:27:07.366Z,17.23999977
2022-09-02T03:28:02.674Z,17.21999931
2022-09-02T03:30:00.433Z,17.22999954
2022-09-02T03:31:02.383Z,17.20999908
2022-09-02T03:31:54.928Z,17.20000076
2022-09-02T03:33:01.760Z,17.17000008
2022-09-02T03:33:04.307Z,17.17000008
2022-09-02T03:34:52.081Z,17.23999977
2022-09-02T03:35:37.425Z,17.27000046
2022-09-02T03:36:38.273Z,17.27000046
2022-09-02T03:37:41.879Z,17.23999977
2022-09-02T03:39:39.650Z,17.18000031
2022-09-02T03:40:37.069Z,17.14999962
2022-09-02T03:41:57.598Z,17.12999916
2022-09-02T03:43:00.833Z,17.21999931
2022-09-02T03:44:00.274Z,17.27000046
2022-09-02T03:45:02.482Z,17.22999954
2022-09-02T03:45:59.803Z,17.19000053
2022-09-02T03:47:04.529Z,17.14999962
2022-09-02T03:48:05.412Z,17.12999916
2022-09-02T03:49:04.820Z,17.12000084
2022-09-02T03:50:02.567Z,17.11000061
2022-09-02T03:51:07.593Z,17.10000038
2022-09-02T03:52:09.387Z,17.07999992
2022-09-02T03:54:36.049Z,17.07999992
2022-09-02T03:55:16.377Z,17.05999947
2022-09-02T03:56:16.199Z,17.06999969
2022-09-02T03:57:11.283Z,17.04999924
2022-09-02T03:58:12.175Z,17.04000092
2022-09-02T03:59:12.243Z,17
2022-09-02T04:00:13.197Z,16.96999931
2022-09-02T04:01:08.287Z,16.94000053
2022-09-02T04:02:11.062Z,16.92000008
2022-09-02T04:03:03.654Z,16.92000008
2022-09-02T04:04:05.257Z,16.92000008
2022-09-02T04:05:05.263Z,16.90999985
2022-09-02T04:05:15.639Z,16.90999985
2022-09-02T04:05:15.719Z,16.90999985
2022-09-02T04:06:03.696Z,16.89999962
2022-09-02T04:07:05.143Z,16.89999962
2022-09-02T04:08:00.690Z,16.88999939
2022-09-02T04:09:59.923Z,16.84000015
2022-09-02T04:11:01.098Z,16.81999969
2022-09-02T04:11:56.337Z,16.80999947
2022-09-02T04:12:58.492Z,16.78000069
2022-09-02T04:15:02.614Z,16.76000023
2022-09-02T04:16:02.846Z,16.73999977
2022-09-02T04:17:01.849Z,16.73999977
2022-09-02T04:18:03.513Z,16.73999977
2022-09-02T04:20:06.171Z,16.68000031
2022-09-02T04:21:00.724Z,16.67000008
2022-09-02T04:22:03.530Z,16.68000031
2022-09-02T04:22:57.026Z,16.67000008
2022-09-02T04:24:53.565Z,16.69000053
2022-09-02T04:25:51.509Z,16.69000053
2022-09-02T04:26:52.839Z,16.68000031
2022-09-02T04:27:49.197Z,16.65999985
2022-09-02T04:29:51.147Z,16.64999962
2022-09-02T04:30:55.733Z,16.64999962
2022-09-02T04:31:48.209Z,16.65999985
2022-09-02T04:32:48.937Z,16.64999962
2022-09-02T04:34:47.229Z,16.64999962
2022-09-02T04:35:43.664Z,16.62999916
2022-09-02T04:36:45.925Z,16.61000061
2022-09-02T04:38:33.216Z,16.68000031
2022-09-02T04:39:13.144Z,16.75
2022-09-02T04:40:11.185Z,16.78000069
2022-09-02T04:41:10.192Z,16.73999977
2022-09-02T04:42:04.961Z,16.70999908
2022-09-02T04:43:11.405Z,16.69000053
2022-09-02T04:44:06.846Z,16.65999985
2022-09-02T04:45:08.583Z,16.63999939
2022-09-02T04:46:08.704Z,16.61000061
2022-09-02T04:47:09.367Z,16.57999992
2022-09-02T04:48:09.929Z,16.59000015
2022-09-02T04:49:10.122Z,16.59000015
2022-09-02T04:50:11.673Z,16.57999992
2022-09-02T04:51:06.426Z,16.56999969
2022-09-02T04:52:08.116Z,16.55999947
2022-09-02T04:53:00.472Z,16.59000015
2022-09-02T04:54:03.153Z,16.60000038
2022-09-02T04:54:57.332Z,16.60000038
2022-09-02T04:55:58.369Z,16.61000061
2022-09-02T04:56:55.752Z,16.59000015
2022-09-02T04:57:54.224Z,16.57999992
2022-09-02T04:58:56.496Z,16.60000038
2022-09-02T04:59:55.671Z,16.59000015
2022-09-02T05:00:51.450Z,16.56999969
2022-09-02T05:01:53.914Z,16.56999969
2022-09-02T05:02:48.740Z,16.59000015
2022-09-02T05:04:49.099Z,16.59000015
2022-09-02T05:05:50.955Z,16.57999992
2022-09-02T05:06:57.508Z,16.59000015
2022-09-02T05:08:02.226Z,16.57999992
2022-09-02T05:10:01.150Z,16.56999969
2022-09-02T05:11:31.484Z,16.56999969
2022-09-02T05:12:12.295Z,16.57999992
2022-09-02T05:13:10.278Z,16.63999939
2022-09-02T05:15:08.403Z,16.62999916
2022-09-02T05:16:09.027Z,16.61000061
2022-09-02T05:17:07.803Z,16.61000061
2022-09-02T05:18:05.088Z,16.59000015
2022-09-02T05:19:00.327Z,16.61000061
2022-09-02T05:20:03.616Z,16.60000038
2022-09-02T05:21:00.214Z,16.60000038
2022-09-02T05:22:02.720Z,16.57999992
2022-09-02T05:23:00.697Z,16.55999947
2022-09-02T05:24:01.816Z,16.56999969
2022-09-02T05:24:54.970Z,16.55999947
2022-09-02T05:25:54.371Z,16.54999924
2022-09-02T05:26:49.168Z,16.54000092
2022-09-02T05:31:13.980Z,17.21999931
2022-09-02T05:31:49.937Z,17.51000023
2022-09-02T05:42:40.673Z,19.14999962
2022-09-02T05:44:59.607Z,19.29999924
2022-09-02T05:46:14.343Z,19.29999924
2022-09-02T05:47:16.776Z,19.21999931
2022-09-02T05:48:16.973Z,19
2022-09-02T05:50:16.040Z,18.56999969
2022-09-02T05:56:06.650Z,18.72999954
2022-09-02T05:58:21.324Z,18.87000084
2022-09-02T06:00:53.828Z,18.92000008
2022-09-02T06:03:37.214Z,19.10000038
2022-09-02T06:04:24.963Z,19.20999908
2022-09-02T06:05:27.852Z,19.27000046
2022-09-02T06:11:20.865Z,19.42000008
2022-09-02T06:13:44.902Z,19.48999977
2022-09-02T06:15:26.366Z,19.52000046
2022-09-02T06:17:52.446Z,19.45000076
2022-09-02T06:19:53.010Z,19.30999947
2022-09-02T06:23:45.811Z,18.72999954
2022-09-02T06:24:27.604Z,18.62000084
2022-09-02T06:25:25.252Z,18.51000023
2022-09-02T06:26:26.745Z,18.38999939
2022-09-02T06:27:22.160Z,18.26000023
2022-09-02T06:28:20.688Z,18.11000061
2022-09-02T06:29:17.119Z,17.96999931
2022-09-02T06:30:16.956Z,17.88999939
2022-09-02T06:31:12.096Z,17.79000092
2022-09-02T06:32:12.245Z,17.75
2022-09-02T06:33:06.609Z,17.71999931
2022-09-02T06:34:07.700Z,17.68000031
2022-09-02T06:34:59.249Z,17.62999916
2022-09-02T06:35:58.684Z,17.60000038
2022-09-02T06:36:53.108Z,17.55999947
2022-09-02T06:37:53.388Z,17.52000046
2022-09-02T06:38:49.835Z,17.47999954
2022-09-02T06:39:48.775Z,17.40999985
2022-09-02T06:40:42.683Z,17.42000008
2022-09-02T06:41:42.377Z,17.36000061
2022-09-02T06:42:36.716Z,17.32999992
2022-09-02T06:44:32.720Z,17.30999947
2022-09-02T06:45:30.547Z,17.31999969
2022-09-02T06:46:25.976Z,17.30999947
2022-09-02T06:47:24.241Z,17.30999947
2022-09-02T06:48:18.613Z,17.29999924
2022-09-02T06:49:21.209Z,17.29000092
2022-09-02T06:50:13.838Z,17.27000046
2022-09-02T06:51:13.060Z,17.23999977
2022-09-02T06:52:09.266Z,17.20999908
2022-09-02T06:53:06.643Z,17.20999908
2022-09-02T06:54:06.787Z,17.22999954
2022-09-02T06:55:01.097Z,17.26000023
2022-09-02T06:56:02.303Z,17.29999924
2022-09-02T06:57:00.094Z,17.30999947
2022-09-02T06:57:51.903Z,17.37000084
2022-09-02T06:58:55.126Z,17.40999985
2022-09-02T06:59:47.478Z,17.42000008
2022-09-02T07:00:48.832Z,17.40999985
2022-09-02T07:01:41.627Z,17.42000008
2022-09-02T07:02:38.873Z,17.43000031
2022-09-02T07:04:25.345Z,17.48999977
2022-09-02T07:05:06.931Z,17.54000092
2022-09-02T07:06:05.607Z,17.56999969
2022-09-02T07:07:06.939Z,17.55999947
2022-09-02T07:08:05.467Z,17.54000092
2022-09-02T07:09:06.677Z,17.51000023
2022-09-02T07:10:03.067Z,17.45999908
2022-09-02T07:11:08.785Z,17.45999908
2022-09-02T07:12:07.907Z,17.44000053
2022-09-02T07:13:11.199Z,17.44000053
2022-09-02T07:14:12.633Z,17.44000053
2022-09-02T07:15:09.224Z,17.42000008
2022-09-02T07:16:11.479Z,17.42000008
2022-09-02T07:16:21.807Z,17.42000008
2022-09-02T07:17:11.816Z,17.45000076
2022-09-02T07:18:08.952Z,17.46999931
2022-09-02T07:19:17.243Z,17.52000046
2022-09-02T07:19:20.637Z,17.52000046
2022-09-02T07:20:10.174Z,17.53000069
2022-09-02T07:21:11.702Z,17.54999924
2022-09-02T07:22:08.344Z,17.57999992
2022-09-02T07:23:11.855Z,17.59000015
2022-09-02T07:24:06.213Z,17.61000061
2022-09-02T07:25:07.011Z,17.61000061
2022-09-02T07:26:05.895Z,17.61000061
2022-09-02T07:27:07.487Z,17.60000038
2022-09-02T07:28:05.763Z,17.59000015
2022-09-02T07:29:11.011Z,17.59000015
2022-09-02T07:30:05.608Z,17.61000061
2022-09-02T07:31:09.696Z,17.62000084
2022-09-02T07:32:03.929Z,17.65999985
2022-09-02T07:33:08.056Z,17.70000076
2022-09-02T07:34:02.545Z,17.75
2022-09-02T07:35:04.660Z,17.77000046
2022-09-02T07:36:04.763Z,17.79999924
2022-09-02T07:36:10.847Z,17.79999924
2022-09-02T07:37:11.079Z,17.82999992
2022-09-02T07:38:14.196Z,17.88999939
2022-09-02T07:39:18.445Z,17.93000031
2022-09-02T07:40:12.739Z,17.95999908
2022-09-02T07:41:14.447Z,17.96999931
2022-09-02T07:42:10.997Z,17.96999931
2022-09-02T07:43:12.750Z,17.98999977
2022-09-02T07:44:10.251Z,18.02000046
2022-09-02T07:45:14.728Z,18.04999924
2022-09-02T07:46:11.956Z,18.06999969
2022-09-02T07:47:13.234Z,18.09000015
2022-09-02T07:48:12.323Z,18.10000038
2022-09-02T07:49:16.895Z,18.12000084
2022-09-02T07:50:19.703Z,18.13999939
2022-09-02T07:50:20.796Z,18.13999939
2022-09-02T07:51:15.053Z,18.17000008
2022-09-02T07:52:12.459Z,18.19000053
2022-09-02T07:53:16.216Z,18.20999908
2022-09-02T07:55:15.100Z,18.23999977
2022-09-02T07:56:10.998Z,18.27000046
2022-09-02T07:57:48.589Z,18.38999939
2022-09-02T07:58:28.904Z,18.5
2022-09-02T07:59:27.356Z,18.61000061
2022-09-02T08:00:28.409Z,18.70000076
2022-09-02T08:01:24.116Z,18.77000046
2022-09-02T08:02:24.057Z,18.80999947
2022-09-02T08:03:19.560Z,18.82999992
2022-09-02T08:04:19.784Z,18.87999916
2022-09-02T08:05:15.114Z,18.89999962
2022-09-02T08:06:14.448Z,18.89999962
2022-09-02T08:07:09.805Z,18.90999985
2022-09-02T08:08:09.411Z,18.90999985
2022-09-02T08:10:07.293Z,18.92000008
2022-09-02T08:10:59.722Z,18.95999908
2022-09-02T08:11:59.560Z,18.95999908
2022-09-02T08:12:54.384Z,18.97999954
2022-09-02T08:13:54.548Z,18.98999977
2022-09-02T08:14:49.832Z,18.98999977
2022-09-02T08:15:51.854Z,19.02000046
2022-09-02T08:16:44.868Z,19.04999924
2022-09-02T08:17:44.910Z,19.10000038
2022-09-02T08:18:40.503Z,19.14999962
2022-09-02T08:19:40.351Z,19.19000053
2022-09-02T08:20:35.816Z,19.22999954
2022-09-02T08:21:38.522Z,19.27000046
2022-09-02T08:24:28.669Z,19.43000031
2022-09-02T08:25:26.936Z,19.48999977
2022-09-02T08:26:27.525Z,19.53000069
2022-09-02T08:27:23.078Z,19.56999969
2022-09-02T08:28:26.467Z,19.61000061
2022-09-02T08:30:20.212Z,19.75
2022-09-02T08:31:15.745Z,19.78000069
2022-09-02T08:32:13.998Z,19.81999969
2022-09-02T08:33:51.369Z,19.90999985
2022-09-02T08:34:31.618Z,19.98999977
2022-09-02T08:35:29.374Z,20.06999969
2022-09-02T08:36:29.879Z,20.12000084
2022-09-02T08:37:26.103Z,20.15999985
2022-09-02T08:38:26.448Z,20.21999931
2022-09-02T08:40:23.087Z,20.38999939
2022-09-02T08:41:18.611Z,20.45999908
2022-09-02T08:42:18.684Z,20.48999977
2022-09-02T08:43:13.989Z,20.48999977
2022-09-02T08:44:13.638Z,20.48999977
2022-09-02T08:45:09.075Z,20.5
2022-09-02T08:46:09.311Z,20.48999977
2022-09-02T08:47:04.266Z,20.47999954
2022-09-02T08:48:03.904Z,20.45999908
2022-09-02T08:49:59.227Z,20.46999931
2022-09-02T08:50:55.485Z,20.48999977
2022-09-02T08:51:54.615Z,20.51000023
2022-09-02T08:52:50.058Z,20.53000069
2022-09-02T08:54:47.519Z,20.54000092
2022-09-02T08:55:42.954Z,20.56999969
2022-09-02T08:56:42.276Z,20.60000038
2022-09-02T08:57:43.332Z,20.61000061
2022-09-02T08:58:35.570Z,20.63999939
2022-09-02T08:59:35.598Z,20.67000008
2022-09-02T09:00:31.048Z,20.70000076
2022-09-02T09:01:34.248Z,20.75
2022-09-02T09:02:27.316Z,20.79999924
2022-09-02T09:03:30.080Z,20.82999992
2022-09-02T09:05:22.702Z,20.94000053
2022-09-02T09:06:20.727Z,20.97999954
2022-09-02T09:07:17.935Z,20.98999977
2022-09-02T09:11:06.034Z,21.65999985
2022-09-02T09:11:44.738Z,21.78000069
2022-09-02T09:12:41.878Z,21.79999924
2022-09-02T09:13:41.551Z,21.75
2022-09-02T09:14:36.969Z,21.70999908
2022-09-02T09:15:34.165Z,21.69000053
2022-09-02T09:16:30.304Z,21.67000008
2022-09-02T09:17:27.218Z,21.65999985
2022-09-02T09:18:26.521Z,21.62999916
2022-09-02T09:20:18.695Z,21.57999992
2022-09-02T09:21:15.065Z,21.54999924
2022-09-02T09:22:14.091Z,21.56999969
2022-09-02T09:23:07.925Z,21.56999969
2022-09-02T09:25:01.909Z,21.57999992
2022-09-02T09:25:59.028Z,21.62000084
2022-09-02T09:26:58.077Z,21.63999939
2022-09-02T09:27:52.370Z,21.65999985
2022-09-02T09:29:47.621Z,21.69000053
2022-09-02T09:30:41.685Z,21.71999931
2022-09-02T09:31:38.837Z,21.75
2022-09-02T09:32:37.767Z,21.79000092
2022-09-02T09:33:32.071Z,21.79999924
2022-09-02T09:34:34.075Z,21.81999969
2022-09-02T09:35:25.995Z,21.87999916
2022-09-02T09:37:11.223Z,22.02000046
2022-09-02T09:37:50.996Z,22.10000038
2022-09-02T09:39:46.353Z,22.20000076
2022-09-02T09:40:44.359Z,22.20999908
2022-09-02T09:41:43.536Z,22.22999954
2022-09-02T09:42:41.325Z,22.25
2022-09-02T09:44:35.778Z,22.27000046
2022-09-02T09:45:33.186Z,22.29999924
2022-09-02T09:46:32.918Z,22.32999992
2022-09-02T09:47:27.721Z,22.32999992
2022-09-02T09:48:29.965Z,22.34000015
2022-09-02T09:50:26.422Z,22.40999985
2022-09-02T09:51:18.899Z,22.44000053
2022-09-02T09:52:21.601Z,22.47999954
2022-09-02T09:53:14.298Z,22.48999977
2022-09-02T09:54:16.680Z,22.52000046
2022-09-02T09:55:11.556Z,22.55999947
2022-09-02T09:56:07.932Z,22.60000038
2022-09-02T09:57:08.184Z,22.62999916
2022-09-02T09:58:03.316Z,22.65999985
2022-09-02T10:01:03.745Z,22.72999954
2022-09-02T10:01:56.588Z,22.75
2022-09-02T10:02:59.063Z,22.79000092
2022-09-02T10:04:54.607Z,22.86000061
2022-09-02T10:05:47.187Z,22.92000008
2022-09-02T10:06:44.898Z,22.94000053
2022-09-02T10:07:45.199Z,22.93000031
2022-09-02T10:08:39.227Z,22.88999939
2022-09-02T10:09:41.189Z,22.85000038
2022-09-02T10:10:33.513Z,22.85000038
2022-09-02T10:11:32.874Z,22.85000038
2022-09-02T10:12:30.386Z,22.84000015
2022-09-02T10:15:05.002Z,22.95999908
2022-09-02T10:16:00.216Z,22.97999954
2022-09-02T10:17:00.411Z,22.95999908
2022-09-02T10:17:56.215Z,22.95000076
2022-09-02T10:19:35.089Z,22.94000053
2022-09-02T10:20:14.467Z,22.94000053
2022-09-02T10:21:15.642Z,22.95999908
2022-09-02T10:22:13.942Z,22.94000053
2022-09-02T10:23:09.515Z,22.93000031
2022-09-02T10:25:04.956Z,22.84000015
2022-09-02T10:26:04.654Z,22.79000092
2022-09-02T10:27:00.651Z,22.76000023
2022-09-02T10:27:59.344Z,22.73999977
2022-09-02T10:28:54.390Z,22.70999908
2022-09-02T10:29:56.024Z,22.69000053
2022-09-02T10:30:48.719Z,22.68000031
2022-09-02T10:31:50.728Z,22.67000008
2022-09-02T10:32:42.778Z,22.65999985
2022-09-02T10:34:40.979Z,22.62999916
2022-09-02T10:35:39.999Z,22.60000038
2022-09-02T10:36:35.144Z,22.56999969
2022-09-02T10:37:34.803Z,22.54999924
2022-09-02T10:38:31.175Z,22.53000069
2022-09-02T10:40:30.516Z,22.51000023
2022-09-02T10:41:27.611Z,22.48999977
2022-09-02T10:42:27.802Z,22.47999954
2022-09-02T10:43:22.779Z,22.45000076
2022-09-02T10:45:17.235Z,22.43000031
2022-09-02T10:46:18.953Z,22.43000031
2022-09-02T10:47:11.051Z,22.44000053
2022-09-02T10:48:15.338Z,22.44000053
2022-09-02T10:50:09.654Z,22.42000008
2022-09-02T10:51:09.886Z,22.44000053
2022-09-02T10:52:04.574Z,22.47999954
2022-09-02T10:53:05.958Z,22.48999977
2022-09-02T10:54:57.876Z,22.48999977
2022-09-02T10:56:00.003Z,22.48999977
2022-09-02T10:56:52.620Z,22.48999977
2022-09-02T10:58:15.549Z,22.48999977
2022-09-02T10:58:56.272Z,22.48999977
2022-09-02T10:59:55.761Z,22.52000046
2022-09-02T11:00:56.294Z,22.51000023
2022-09-02T11:01:55.604Z,22.5
2022-09-02T11:02:54.488Z,22.48999977
2022-09-02T11:03:50.063Z,22.48999977
2022-09-02T11:04:50.111Z,22.45000076
2022-09-02T11:04:55.289Z,22.45000076
2022-09-02T11:05:48.882Z,22.45999908
2022-09-02T11:07:02.554Z,22.48999977
2022-09-02T11:07:03.058Z,22.48999977
2022-09-02T11:07:03.338Z,22.48999977
2022-09-02T11:07:46.326Z,22.52000046
2022-09-02T11:08:41.809Z,22.55999947
2022-09-02T11:10:37.987Z,22.59000015
2022-09-02T11:11:38.358Z,22.59000015
2022-09-02T11:12:34.813Z,22.57999992
2022-09-02T11:13:34.687Z,22.55999947
2022-09-02T11:15:30.868Z,22.55999947
2022-09-02T11:15:36.122Z,22.55999947
2022-09-02T11:16:30.242Z,22.56999969
2022-09-02T11:17:26.185Z,22.57999992
2022-09-02T11:18:27.025Z,22.57999992
2022-09-02T11:20:27.441Z,22.56999969
2022-09-02T11:21:20.527Z,22.57999992
2022-09-02T11:22:27.286Z,22.59000015
2022-09-02T11:23:19.533Z,22.60000038
2022-09-02T11:25:15.365Z,22.63999939
2022-09-02T11:26:10.936Z,22.63999939
2022-09-02T11:27:32.091Z,22.65999985
2022-09-02T11:27:32.289Z,22.65999985
2022-09-02T11:27:32.416Z,22.65999985
2022-09-02T11:28:10.839Z,22.69000053
2022-09-02T11:29:07.187Z,22.75
2022-09-02T11:30:07.623Z,22.79000092
2022-09-02T11:31:03.811Z,22.79000092
2022-09-02T11:32:04.493Z,22.79999924
2022-09-02T11:33:00.508Z,22.79000092
2022-09-02T11:34:58.895Z,22.76000023
2022-09-02T11:35:55.060Z,22.75
2022-09-02T11:36:56.328Z,22.75
2022-09-02T11:37:53.520Z,22.76000023
2022-09-02T11:39:54.393Z,22.79000092
2022-09-02T11:40:11.180Z,22.79000092
2022-09-02T11:40:17.331Z,22.79000092
2022-09-02T11:41:50.272Z,22.92000008
2022-09-02T11:42:50.814Z,22.98999977
2022-09-02T11:43:47.494Z,22.98999977
2022-09-02T11:44:52.861Z,22.97999954
2022-09-02T11:46:16.956Z,23
2022-09-02T11:46:57.900Z,23.04000092
2022-09-02T11:47:58.479Z,23.09000015
2022-09-02T11:49:53.306Z,23.11000061
2022-09-02T11:50:52.394Z,23.10000038
2022-09-02T11:51:47.595Z,23.10000038
2022-09-02T11:52:50.254Z,23.10000038
2022-09-02T11:53:42.827Z,23.09000015
2022-09-02T11:55:39.345Z,23.10000038
2022-09-02T11:56:37.558Z,23.12000084
2022-09-02T11:57:35.853Z,23.12000084
2022-09-02T11:58:31.159Z,23.12999916
2022-09-02T12:00:27.677Z,23.13999939
2022-09-02T12:01:25.613Z,23.13999939
2022-09-02T12:02:25.473Z,23.12999916
2022-09-02T12:03:40.303Z,23.11000061
2022-09-02T12:03:41.214Z,23.11000061
2022-09-02T12:04:06.741Z,23.11000061
2022-09-02T12:05:17.747Z,23.21999931
2022-09-02T12:06:20.301Z,23.25
2022-09-02T12:07:14.164Z,23.28000069
2022-09-02T12:08:16.947Z,23.29000092
2022-09-02T12:09:10.502Z,23.28000069
2022-09-02T12:10:13.434Z,23.27000046
2022-09-02T12:11:09.403Z,23.25
2022-09-02T12:12:06.962Z,23.26000023
2022-09-02T12:13:02.295Z,23.23999977